Terminal Aerodrome Forecast
Issued by NWS Bismarck, ND

Home | Current Version | Previous Version | Text Only | Print | Product List | Glossary Off
Versions: 1 2 3 4 5 6 7 8 9 10 11 12 13 14 15

000
FTUS43 KBIS 151700 RRA
TAFBIS
TAF
KBIS 151741Z 1518/1618 15017G25KT P6SM BKN080
     FM160000 10018KT P6SM BKN070
     FM160300 09016KT P6SM VCSH BKN040
     FM160900 06013KT 4SM -SN OVC025
     FM161300 05011KT P6SM OVC015=

USA.gov is the U.S. government's official web portal to all federal, state and local government web resources and services.